createdAt,value
2017-11-11T16:25:35.487Z,5.70
2017-11-11T16:26:37.835Z,5.73
2017-11-11T16:27:41.491Z,5.73
2017-11-11T16:28:45.364Z,5.67
2017-11-11T17:50:10.650Z,4.91
2017-11-11T17:51:12.050Z,4.88
2017-11-11T17:52:14.880Z,4.96
2017-11-11T17:53:17.592Z,4.93
2017-11-11T17:54:19.013Z,4.86
2017-11-11T17:55:22.617Z,4.90
2017-11-11T17:56:25.515Z,4.83
2017-11-11T17:57:28.201Z,4.83
2017-11-11T17:58:31.018Z,4.90
2017-11-11T17:59:33.820Z,4.84
2017-11-11T18:00:36.514Z,4.86
2017-11-11T18:01:40.704Z,4.80
2017-11-11T18:02:44.566Z,4.87
2017-11-11T18:03:48.108Z,4.86
2017-11-11T18:04:51.706Z,4.86
2017-11-11T18:05:55.502Z,4.90
2017-11-11T18:06:59.045Z,4.80
2017-11-11T18:08:02.670Z,4.75
2017-11-11T18:09:06.290Z,4.77
2017-11-11T18:10:07.758Z,4.77
2017-11-11T18:11:10.550Z,4.77
2017-11-11T18:12:13.447Z,4.65
2017-11-11T18:13:16.335Z,4.79
2017-11-11T18:14:18.818Z,4.71
2017-11-11T18:15:21.670Z,4.74
2017-11-11T18:16:24.433Z,4.71
2017-11-11T18:17:27.459Z,4.65
2017-11-11T18:18:30.480Z,4.74
2017-11-11T18:19:33.196Z,4.62
2017-11-11T18:20:35.877Z,4.69
2017-11-11T18:21:37.340Z,4.61
2017-11-11T18:22:40.317Z,4.56
2017-11-11T18:23:43.160Z,4.65
2017-11-11T18:24:46.389Z,4.57
2017-11-11T18:25:49.168Z,4.59
2017-11-11T18:26:52.007Z,4.56
2017-11-11T18:27:54.910Z,4.49
2017-11-11T18:28:58.242Z,4.59
2017-11-11T18:30:01.321Z,4.50
2017-11-11T18:31:04.019Z,4.49
2017-11-11T18:32:07.026Z,4.39
2017-11-11T18:33:09.737Z,4.50
2017-11-11T18:34:12.075Z,4.49
2017-11-11T18:35:13.559Z,4.43
2017-11-11T18:36:16.297Z,4.44
2017-11-11T18:37:19.117Z,4.43
2017-11-11T18:38:22.917Z,4.44
2017-11-11T18:39:26.184Z,4.51
2017-11-11T18:40:29.014Z,4.47
2017-11-11T18:41:31.577Z,4.43
2017-11-11T18:42:33.031Z,4.42
2017-11-11T18:43:35.702Z,4.53
2017-11-11T18:44:37.151Z,4.39
2017-11-11T18:45:41.989Z,4.32
2017-11-11T18:46:44.826Z,4.43
2017-11-11T18:47:47.533Z,4.42
2017-11-11T18:48:50.331Z,4.32
2017-11-11T18:49:53.080Z,4.29
2017-11-11T18:50:55.782Z,4.25
2017-11-11T18:51:58.545Z,4.32
2017-11-11T18:53:01.244Z,4.34
2017-11-11T18:54:04.212Z,4.28
2017-11-11T18:55:08.502Z,4.31
2017-11-11T18:56:11.596Z,4.26
2017-11-11T18:57:15.434Z,4.26
2017-11-11T18:58:19.100Z,4.29
2017-11-11T18:59:22.711Z,4.28
2017-11-11T19:00:26.578Z,4.25
2017-11-11T19:01:30.121Z,4.28
2017-11-11T19:02:33.658Z,4.26
2017-11-11T19:03:36.965Z,4.29
2017-11-11T19:04:40.333Z,4.29
2017-11-11T19:05:43.876Z,4.25
2017-11-11T19:06:47.484Z,4.20
2017-11-11T19:07:51.113Z,4.17
2017-11-11T19:08:54.652Z,4.24
2017-11-11T19:09:58.693Z,4.21
2017-11-11T19:11:02.289Z,4.16
2017-11-11T19:12:05.983Z,4.14
2017-11-11T19:13:10.037Z,4.13
2017-11-11T19:14:12.753Z,4.11
2017-11-11T19:15:15.560Z,4.06
2017-11-11T19:16:18.141Z,4.11
2017-11-11T19:17:20.967Z,4.11
2017-11-11T19:18:23.808Z,4.14
2017-11-11T19:19:26.611Z,4.06
2017-11-11T19:20:29.547Z,4.04
2017-11-11T19:21:32.317Z,4.06
2017-11-11T19:22:35.256Z,4.04
2017-11-11T19:23:39.514Z,4.08
2017-11-11T19:24:44.270Z,4.06
2017-11-11T19:25:48.022Z,4.07
2017-11-11T19:26:51.621Z,3.98
2017-11-11T19:27:55.168Z,4.00
2017-11-11T19:28:58.714Z,3.98
2017-11-11T19:30:01.420Z,4.00
2017-11-11T19:31:04.220Z,4.06
2017-11-11T19:32:06.938Z,4.02
2017-11-11T19:33:09.732Z,4.02
2017-11-11T19:34:12.666Z,4.04
2017-11-11T19:35:15.388Z,4.02
2017-11-11T19:36:16.910Z,4.04
2017-11-11T19:37:19.718Z,3.90
2017-11-11T19:38:22.557Z,3.90
2017-11-11T19:39:25.173Z,3.90
2017-11-11T19:40:28.063Z,3.93
2017-11-11T19:41:30.860Z,3.90
2017-11-11T19:42:33.601Z,3.92
2017-11-11T19:43:36.402Z,3.99
2017-11-11T19:44:39.086Z,3.95
2017-11-11T19:45:41.791Z,4.02
2017-11-11T19:46:44.524Z,3.89
2017-11-11T19:47:47.158Z,3.81
2017-11-11T19:48:50.139Z,3.86
2017-11-11T19:49:53.033Z,3.89
2017-11-11T19:50:54.500Z,3.84
2017-11-11T19:51:57.150Z,3.89
2017-11-11T19:53:00.027Z,3.93
2017-11-11T19:54:03.021Z,3.84
2017-11-11T19:55:05.960Z,3.89
2017-11-11T19:56:08.730Z,3.81
2017-11-11T19:57:12.587Z,3.81
2017-11-11T19:58:16.352Z,3.89
2017-11-11T19:59:20.126Z,3.84
2017-11-11T20:00:25.227Z,3.84
2017-11-11T20:01:28.834Z,3.92
2017-11-11T20:02:32.336Z,3.90
2017-11-11T20:03:36.288Z,3.88
2017-11-11T20:10:05.396Z,3.95
2017-11-11T20:11:08.330Z,3.90
